sensor_id;sensor_type;location;lat;lon;timestamp;temperature;humidity
13472;DHT22;6808;49.444;11.034;2022-09-17T00:00:17;10.30;99.90
13472;DHT22;6808;49.444;11.034;2022-09-17T00:02:43;10.30;99.90
13472;DHT22;6808;49.444;11.034;2022-09-17T00:05:10;10.30;99.90
13472;DHT22;6808;49.444;11.034;2022-09-17T00:07:36;10.30;99.90
13472;DHT22;6808;49.444;11.034;2022-09-17T00:10:02;10.30;99.90
13472;DHT22;6808;49.444;11.034;2022-09-17T00:12:27;10.20;99.90
13472;DHT22;6808;49.444;11.034;2022-09-17T00:14:53;10.20;99.90
13472;DHT22;6808;49.444;11.034;2022-09-17T00:17:18;10.20;99.90
13472;DHT22;6808;49.444;11.034;2022-09-17T00:19:44;10.10;99.90
13472;DHT22;6808;49.444;11.034;2022-09-17T00:22:09;10.10;99.90
13472;DHT22;6808;49.444;11.034;2022-09-17T00:24:35;10.10;99.90
13472;DHT22;6808;49.444;11.034;2022-09-17T00:27:00;10.10;99.90
13472;DHT22;6808;49.444;11.034;2022-09-17T00:29:26;10.00;99.90
13472;DHT22;6808;49.444;11.034;2022-09-17T00:31:52;10.00;99.90
13472;DHT22;6808;49.444;11.034;2022-09-17T00:34:17;10.00;99.90
13472;DHT22;6808;49.444;11.034;2022-09-17T00:36:43;10.00;99.90
13472;DHT22;6808;49.444;11.034;2022-09-17T00:39:11;10.00;99.90
13472;DHT22;6808;49.444;11.034;2022-09-17T00:41:38;10.00;99.90
13472;DHT22;6808;49.444;11.034;2022-09-17T00:47:00;10.10;99.90
13472;DHT22;6808;49.444;11.034;2022-09-17T00:49:28;10.00;99.90
13472;DHT22;6808;49.444;11.034;2022-09-17T00:52:02;10.00;99.90
13472;DHT22;6808;49.444;11.034;2022-09-17T00:54:29;10.00;99.90
13472;DHT22;6808;49.444;11.034;2022-09-17T00:56:55;10.00;99.90
13472;DHT22;6808;49.444;11.034;2022-09-17T00:59:22;10.00;99.90
13472;DHT22;6808;49.444;11.034;2022-09-17T01:01:48;10.00;99.90
13472;DHT22;6808;49.444;11.034;2022-09-17T01:04:24;10.00;99.90
13472;DHT22;6808;49.444;11.034;2022-09-17T01:09:41;9.90;99.90
13472;DHT22;6808;49.444;11.034;2022-09-17T01:26:31;9.80;99.90
13472;DHT22;6808;49.444;11.034;2022-09-17T01:29:41;9.80;99.90
13472;DHT22;6808;49.444;11.034;2022-09-17T01:42:46;9.80;99.90
13472;DHT22;6808;49.444;11.034;2022-09-17T01:45:22;9.80;99.90
13472;DHT22;6808;49.444;11.034;2022-09-17T01:47:53;9.80;99.90
13472;DHT22;6808;49.444;11.034;2022-09-17T01:50:26;9.80;99.90
13472;DHT22;6808;49.444;11.034;2022-09-17T01:52:55;9.80;99.90
13472;DHT22;6808;49.444;11.034;2022-09-17T01:55:24;9.80;99.90
13472;DHT22;6808;49.444;11.034;2022-09-17T01:58:03;9.70;99.90
13472;DHT22;6808;49.444;11.034;2022-09-17T02:00:29;9.70;99.90
13472;DHT22;6808;49.444;11.034;2022-09-17T02:03:17;9.70;99.90
13472;DHT22;6808;49.444;11.034;2022-09-17T02:05:47;9.60;99.90
13472;DHT22;6808;49.444;11.034;2022-09-17T02:08:22;9.70;99.90
13472;DHT22;6808;49.444;11.034;2022-09-17T02:10:55;9.60;99.90
13472;DHT22;6808;49.444;11.034;2022-09-17T02:13:36;9.60;99.90
13472;DHT22;6808;49.444;11.034;2022-09-17T02:16:15;9.60;99.90
13472;DHT22;6808;49.444;11.034;2022-09-17T02:21:47;9.60;99.90
13472;DHT22;6808;49.444;11.034;2022-09-17T02:24:25;9.60;99.90
13472;DHT22;6808;49.444;11.034;2022-09-17T02:27:05;9.60;99.90
13472;DHT22;6808;49.444;11.034;2022-09-17T02:29:34;9.60;99.90
13472;DHT22;6808;49.444;11.034;2022-09-17T02:32:01;9.60;99.90
13472;DHT22;6808;49.444;11.034;2022-09-17T02:34:28;9.70;99.90
13472;DHT22;6808;49.444;11.034;2022-09-17T02:36:54;9.70;99.90
13472;DHT22;6808;49.444;11.034;2022-09-17T02:39:20;9.70;99.90
13472;DHT22;6808;49.444;11.034;2022-09-17T02:55:41;9.80;99.90
13472;DHT22;6808;49.444;11.034;2022-09-17T03:00:43;9.80;99.90
13472;DHT22;6808;49.444;11.034;2022-09-17T03:05:56;9.80;99.90
13472;DHT22;6808;49.444;11.034;2022-09-17T03:08:33;9.90;99.90
13472;DHT22;6808;49.444;11.034;2022-09-17T03:10:59;9.90;99.90
13472;DHT22;6808;49.444;11.034;2022-09-17T03:13:25;10.00;99.90
13472;DHT22;6808;49.444;11.034;2022-09-17T03:15:50;9.90;99.90
13472;DHT22;6808;49.444;11.034;2022-09-17T03:18:16;9.90;99.90
13472;DHT22;6808;49.444;11.034;2022-09-17T03:20:41;9.90;99.90
13472;DHT22;6808;49.444;11.034;2022-09-17T03:23:07;9.90;99.90
13472;DHT22;6808;49.444;11.034;2022-09-17T03:25:33;9.90;99.90
13472;DHT22;6808;49.444;11.034;2022-09-17T03:27:58;10.00;99.90
13472;DHT22;6808;49.444;11.034;2022-09-17T03:30:24;10.00;99.90
13472;DHT22;6808;49.444;11.034;2022-09-17T03:32:49;10.00;99.90
13472;DHT22;6808;49.444;11.034;2022-09-17T03:35:15;10.00;99.90
13472;DHT22;6808;49.444;11.034;2022-09-17T03:37:40;10.00;99.90
13472;DHT22;6808;49.444;11.034;2022-09-17T03:40:07;10.00;99.90
13472;DHT22;6808;49.444;11.034;2022-09-17T03:42:33;10.00;99.90
13472;DHT22;6808;49.444;11.034;2022-09-17T03:44:58;10.00;99.90
13472;DHT22;6808;49.444;11.034;2022-09-17T03:47:24;10.00;99.90
13472;DHT22;6808;49.444;11.034;2022-09-17T03:49:49;10.00;99.90
13472;DHT22;6808;49.444;11.034;2022-09-17T03:52:16;9.90;99.90
13472;DHT22;6808;49.444;11.034;2022-09-17T03:54:42;10.00;99.90
13472;DHT22;6808;49.444;11.034;2022-09-17T03:57:07;10.00;99.90
13472;DHT22;6808;49.444;11.034;2022-09-17T03:59:33;9.90;99.90
13472;DHT22;6808;49.444;11.034;2022-09-17T04:01:59;10.00;99.90
13472;DHT22;6808;49.444;11.034;2022-09-17T04:04:24;10.00;99.90
13472;DHT22;6808;49.444;11.034;2022-09-17T04:06:50;10.00;99.90
13472;DHT22;6808;49.444;11.034;2022-09-17T04:09:15;9.90;99.90
13472;DHT22;6808;49.444;11.034;2022-09-17T04:11:41;9.90;99.90
13472;DHT22;6808;49.444;11.034;2022-09-17T04:14:07;9.90;99.90
13472;DHT22;6808;49.444;11.034;2022-09-17T04:16:32;9.90;99.90
13472;DHT22;6808;49.444;11.034;2022-09-17T04:18:58;9.90;99.90
13472;DHT22;6808;49.444;11.034;2022-09-17T04:21:23;9.80;99.90
13472;DHT22;6808;49.444;11.034;2022-09-17T04:23:49;9.90;99.90
13472;DHT22;6808;49.444;11.034;2022-09-17T04:26:15;9.90;99.90
13472;DHT22;6808;49.444;11.034;2022-09-17T04:28:41;9.90;99.90
13472;DHT22;6808;49.444;11.034;2022-09-17T04:31:06;9.80;99.90
13472;DHT22;6808;49.444;11.034;2022-09-17T04:33:32;9.90;99.90
13472;DHT22;6808;49.444;11.034;2022-09-17T04:35:57;9.90;99.90
13472;DHT22;6808;49.444;11.034;2022-09-17T04:38:23;9.90;99.90
13472;DHT22;6808;49.444;11.034;2022-09-17T04:40:49;9.80;99.90
13472;DHT22;6808;49.444;11.034;2022-09-17T04:43:15;9.80;99.90
13472;DHT22;6808;49.444;11.034;2022-09-17T04:45:45;9.90;99.90
13472;DHT22;6808;49.444;11.034;2022-09-17T04:48:10;9.90;99.90
13472;DHT22;6808;49.444;11.034;2022-09-17T04:50:36;9.90;99.90
13472;DHT22;6808;49.444;11.034;2022-09-17T04:53:01;9.80;99.90
13472;DHT22;6808;49.444;11.034;2022-09-17T04:55:27;9.80;99.90
13472;DHT22;6808;49.444;11.034;2022-09-17T04:57:53;9.90;99.90
13472;DHT22;6808;49.444;11.034;2022-09-17T05:00:20;9.80;99.90
13472;DHT22;6808;49.444;11.034;2022-09-17T05:02:48;9.90;99.90
13472;DHT22;6808;49.444;11.034;2022-09-17T05:05:15;9.80;99.90
13472;DHT22;6808;49.444;11.034;2022-09-17T05:07:40;9.80;99.90
13472;DHT22;6808;49.444;11.034;2022-09-17T05:10:08;9.80;99.90
13472;DHT22;6808;49.444;11.034;2022-09-17T05:12:34;9.90;99.90
13472;DHT22;6808;49.444;11.034;2022-09-17T05:15:00;9.90;99.90
13472;DHT22;6808;49.444;11.034;2022-09-17T05:17:25;9.80;99.90
13472;DHT22;6808;49.444;11.034;2022-09-17T05:19:51;9.80;99.90
13472;DHT22;6808;49.444;11.034;2022-09-17T05:22:18;9.80;99.90
13472;DHT22;6808;49.444;11.034;2022-09-17T05:24:44;9.80;99.90
13472;DHT22;6808;49.444;11.034;2022-09-17T05:27:09;9.80;99.90
13472;DHT22;6808;49.444;11.034;2022-09-17T05:29:35;9.90;99.90
13472;DHT22;6808;49.444;11.034;2022-09-17T05:32:04;9.90;99.90
13472;DHT22;6808;49.444;11.034;2022-09-17T05:34:29;9.90;99.90
13472;DHT22;6808;49.444;11.034;2022-09-17T05:36:55;9.90;99.90
13472;DHT22;6808;49.444;11.034;2022-09-17T05:39:21;9.90;99.90
13472;DHT22;6808;49.444;11.034;2022-09-17T05:41:53;10.00;99.90
13472;DHT22;6808;49.444;11.034;2022-09-17T05:44:19;9.90;99.90
13472;DHT22;6808;49.444;11.034;2022-09-17T05:46:46;9.90;99.90
13472;DHT22;6808;49.444;11.034;2022-09-17T05:49:12;9.90;99.90
13472;DHT22;6808;49.444;11.034;2022-09-17T05:51:39;9.80;99.90
13472;DHT22;6808;49.444;11.034;2022-09-17T05:54:05;9.80;99.90
13472;DHT22;6808;49.444;11.034;2022-09-17T05:56:31;9.70;99.90
13472;DHT22;6808;49.444;11.034;2022-09-17T05:58:57;9.70;99.90
13472;DHT22;6808;49.444;11.034;2022-09-17T06:01:23;9.70;99.90
13472;DHT22;6808;49.444;11.034;2022-09-17T06:03:49;9.60;99.90
13472;DHT22;6808;49.444;11.034;2022-09-17T06:06:14;9.70;99.90
13472;DHT22;6808;49.444;11.034;2022-09-17T06:08:40;9.60;99.90
13472;DHT22;6808;49.444;11.034;2022-09-17T06:11:07;9.60;99.90
13472;DHT22;6808;49.444;11.034;2022-09-17T06:13:33;9.70;99.90
13472;DHT22;6808;49.444;11.034;2022-09-17T06:16:00;9.70;99.90
13472;DHT22;6808;49.444;11.034;2022-09-17T06:18:27;9.70;99.90
13472;DHT22;6808;49.444;11.034;2022-09-17T06:20:57;9.60;99.90
13472;DHT22;6808;49.444;11.034;2022-09-17T06:23:23;9.60;99.90
13472;DHT22;6808;49.444;11.034;2022-09-17T06:25:55;9.70;99.90
13472;DHT22;6808;49.444;11.034;2022-09-17T06:28:21;9.60;99.90
13472;DHT22;6808;49.444;11.034;2022-09-17T06:30:47;9.60;99.90
13472;DHT22;6808;49.444;11.034;2022-09-17T06:33:13;9.60;99.90
13472;DHT22;6808;49.444;11.034;2022-09-17T06:35:39;9.60;99.90
13472;DHT22;6808;49.444;11.034;2022-09-17T06:38:05;9.60;99.90
13472;DHT22;6808;49.444;11.034;2022-09-17T06:40:30;9.60;99.90
13472;DHT22;6808;49.444;11.034;2022-09-17T06:43:00;9.60;99.90
13472;DHT22;6808;49.444;11.034;2022-09-17T06:45:25;9.60;99.90
13472;DHT22;6808;49.444;11.034;2022-09-17T06:47:51;9.60;99.90
13472;DHT22;6808;49.444;11.034;2022-09-17T06:50:17;9.50;99.90
13472;DHT22;6808;49.444;11.034;2022-09-17T06:52:53;9.60;99.90
13472;DHT22;6808;49.444;11.034;2022-09-17T06:55:19;9.60;99.90
13472;DHT22;6808;49.444;11.034;2022-09-17T06:57:45;9.60;99.90
13472;DHT22;6808;49.444;11.034;2022-09-17T07:00:12;9.60;99.90
13472;DHT22;6808;49.444;11.034;2022-09-17T07:02:38;9.60;99.90
13472;DHT22;6808;49.444;11.034;2022-09-17T07:05:04;9.60;99.90
13472;DHT22;6808;49.444;11.034;2022-09-17T07:07:30;9.70;99.90
13472;DHT22;6808;49.444;11.034;2022-09-17T07:09:55;9.60;99.90
13472;DHT22;6808;49.444;11.034;2022-09-17T07:12:21;9.60;99.90
13472;DHT22;6808;49.444;11.034;2022-09-17T07:14:46;9.60;99.90
13472;DHT22;6808;49.444;11.034;2022-09-17T07:17:13;9.60;99.90
13472;DHT22;6808;49.444;11.034;2022-09-17T07:19:38;9.50;99.90
13472;DHT22;6808;49.444;11.034;2022-09-17T07:22:04;9.50;99.90
13472;DHT22;6808;49.444;11.034;2022-09-17T07:24:30;9.50;99.90
13472;DHT22;6808;49.444;11.034;2022-09-17T07:26:55;9.50;99.90
13472;DHT22;6808;49.444;11.034;2022-09-17T07:29:21;9.50;99.90
13472;DHT22;6808;49.444;11.034;2022-09-17T07:31:51;9.50;99.90
13472;DHT22;6808;49.444;11.034;2022-09-17T07:34:16;9.50;99.90
13472;DHT22;6808;49.444;11.034;2022-09-17T07:36:42;9.50;99.90
13472;DHT22;6808;49.444;11.034;2022-09-17T07:39:08;9.50;99.90
13472;DHT22;6808;49.444;11.034;2022-09-17T07:41:35;9.50;99.90
13472;DHT22;6808;49.444;11.034;2022-09-17T07:44:01;9.50;99.90
13472;DHT22;6808;49.444;11.034;2022-09-17T07:46:27;9.60;99.90
13472;DHT22;6808;49.444;11.034;2022-09-17T07:48:53;9.50;99.90
13472;DHT22;6808;49.444;11.034;2022-09-17T07:51:23;9.50;99.90
13472;DHT22;6808;49.444;11.034;2022-09-17T07:53:53;9.50;99.90
13472;DHT22;6808;49.444;11.034;2022-09-17T07:56:20;9.50;99.90
13472;DHT22;6808;49.444;11.034;2022-09-17T07:58:46;9.50;99.90
13472;DHT22;6808;49.444;11.034;2022-09-17T08:01:13;9.60;99.90
13472;DHT22;6808;49.444;11.034;2022-09-17T08:03:47;9.60;99.90
13472;DHT22;6808;49.444;11.034;2022-09-17T08:06:15;9.60;99.90
13472;DHT22;6808;49.444;11.034;2022-09-17T08:08:42;9.70;99.90
13472;DHT22;6808;49.444;11.034;2022-09-17T08:11:18;9.70;99.90
13472;DHT22;6808;49.444;11.034;2022-09-17T08:13:47;9.80;99.90
13472;DHT22;6808;49.444;11.034;2022-09-17T08:16:13;9.80;99.90
13472;DHT22;6808;49.444;11.034;2022-09-17T08:18:40;9.80;99.90
13472;DHT22;6808;49.444;11.034;2022-09-17T08:21:08;9.90;99.90
13472;DHT22;6808;49.444;11.034;2022-09-17T08:23:36;9.90;99.90
13472;DHT22;6808;49.444;11.034;2022-09-17T08:26:03;9.90;99.90
13472;DHT22;6808;49.444;11.034;2022-09-17T08:28:30;9.90;99.90
13472;DHT22;6808;49.444;11.034;2022-09-17T08:31:04;10.00;99.90
13472;DHT22;6808;49.444;11.034;2022-09-17T08:33:31;10.00;99.90
13472;DHT22;6808;49.444;11.034;2022-09-17T08:35:57;10.00;99.90
13472;DHT22;6808;49.444;11.034;2022-09-17T08:38:25;10.00;99.90
13472;DHT22;6808;49.444;11.034;2022-09-17T08:44:00;10.00;99.90
13472;DHT22;6808;49.444;11.034;2022-09-17T08:46:44;10.00;99.90
13472;DHT22;6808;49.444;11.034;2022-09-17T08:49:31;9.90;99.90
13472;DHT22;6808;49.444;11.034;2022-09-17T08:55:16;9.90;99.90
13472;DHT22;6808;49.444;11.034;2022-09-17T08:58:06;10.00;99.90
13472;DHT22;6808;49.444;11.034;2022-09-17T09:00:44;10.00;99.90
13472;DHT22;6808;49.444;11.034;2022-09-17T09:03:41;10.10;99.90
13472;DHT22;6808;49.444;11.034;2022-09-17T09:06:08;10.20;99.90
13472;DHT22;6808;49.444;11.034;2022-09-17T09:08:38;10.70;99.90
13472;DHT22;6808;49.444;11.034;2022-09-17T09:11:12;10.40;99.90
13472;DHT22;6808;49.444;11.034;2022-09-17T09:16:46;10.50;99.90
13472;DHT22;6808;49.444;11.034;2022-09-17T09:19:25;10.70;99.90
13472;DHT22;6808;49.444;11.034;2022-09-17T09:21:59;10.80;99.90
13472;DHT22;6808;49.444;11.034;2022-09-17T09:24:36;10.80;99.90
13472;DHT22;6808;49.444;11.034;2022-09-17T09:27:24;10.80;99.90
13472;DHT22;6808;49.444;11.034;2022-09-17T09:35:28;11.00;99.90
13472;DHT22;6808;49.444;11.034;2022-09-17T09:38:06;11.00;99.90
13472;DHT22;6808;49.444;11.034;2022-09-17T09:40:57;11.00;99.90
13472;DHT22;6808;49.444;11.034;2022-09-17T09:43:42;11.10;99.90
13472;DHT22;6808;49.444;11.034;2022-09-17T09:46:13;11.20;99.90
13472;DHT22;6808;49.444;11.034;2022-09-17T09:49:04;11.20;99.90
13472;DHT22;6808;49.444;11.034;2022-09-17T09:51:39;11.20;99.90
13472;DHT22;6808;49.444;11.034;2022-09-17T09:59:18;11.20;99.90
13472;DHT22;6808;49.444;11.034;2022-09-17T10:01:43;11.30;99.90
13472;DHT22;6808;49.444;11.034;2022-09-17T10:04:24;11.30;99.90
13472;DHT22;6808;49.444;11.034;2022-09-17T10:06:59;11.30;99.90
13472;DHT22;6808;49.444;11.034;2022-09-17T10:09:27;11.40;99.90
13472;DHT22;6808;49.444;11.034;2022-09-17T10:14:34;11.60;99.90
13472;DHT22;6808;49.444;11.034;2022-09-17T10:17:24;11.70;99.90
13472;DHT22;6808;49.444;11.034;2022-09-17T10:22:43;12.10;99.90
13472;DHT22;6808;49.444;11.034;2022-09-17T10:25:29;12.20;99.90
13472;DHT22;6808;49.444;11.034;2022-09-17T10:27:57;12.40;99.90
13472;DHT22;6808;49.444;11.034;2022-09-17T10:30:24;12.50;99.90
13472;DHT22;6808;49.444;11.034;2022-09-17T10:33:15;12.60;99.90
13472;DHT22;6808;49.444;11.034;2022-09-17T10:38:30;12.90;99.90
13472;DHT22;6808;49.444;11.034;2022-09-17T10:41:17;13.00;99.90
13472;DHT22;6808;49.444;11.034;2022-09-17T10:43:44;13.00;99.90
13472;DHT22;6808;49.444;11.034;2022-09-17T10:46:14;13.00;99.90
13472;DHT22;6808;49.444;11.034;2022-09-17T10:48:43;13.00;99.90
13472;DHT22;6808;49.444;11.034;2022-09-17T10:51:10;12.80;99.90
13472;DHT22;6808;49.444;11.034;2022-09-17T10:54:24;12.60;99.90
13472;DHT22;6808;49.444;11.034;2022-09-17T10:56:56;12.40;99.90
13472;DHT22;6808;49.444;11.034;2022-09-17T10:59:38;12.40;99.90
13472;DHT22;6808;49.444;11.034;2022-09-17T11:02:45;12.70;99.90
13472;DHT22;6808;49.444;11.034;2022-09-17T11:05:33;12.70;99.90
13472;DHT22;6808;49.444;11.034;2022-09-17T11:10:52;12.70;99.90
13472;DHT22;6808;49.444;11.034;2022-09-17T11:13:48;12.70;99.90
13472;DHT22;6808;49.444;11.034;2022-09-17T11:21:54;13.60;99.90
13472;DHT22;6808;49.444;11.034;2022-09-17T11:24:42;13.70;99.90
13472;DHT22;6808;49.444;11.034;2022-09-17T11:27:37;13.90;99.90
13472;DHT22;6808;49.444;11.034;2022-09-17T11:30:16;13.80;99.90
13472;DHT22;6808;49.444;11.034;2022-09-17T11:33:11;14.00;99.90
13472;DHT22;6808;49.444;11.034;2022-09-17T11:35:50;14.00;99.90
13472;DHT22;6808;49.444;11.034;2022-09-17T11:38:32;14.20;99.90
13472;DHT22;6808;49.444;11.034;2022-09-17T11:41:07;14.40;99.90
13472;DHT22;6808;49.444;11.034;2022-09-17T11:43:42;14.40;99.90
13472;DHT22;6808;49.444;11.034;2022-09-17T11:46:28;14.40;99.90
13472;DHT22;6808;49.444;11.034;2022-09-17T11:49:02;14.20;99.90
13472;DHT22;6808;49.444;11.034;2022-09-17T11:52:10;14.10;99.90
13472;DHT22;6808;49.444;11.034;2022-09-17T11:57:25;13.80;99.90
13472;DHT22;6808;49.444;11.034;2022-09-17T11:59:56;14.00;99.90
13472;DHT22;6808;49.444;11.034;2022-09-17T12:05:51;14.40;99.90
13472;DHT22;6808;49.444;11.034;2022-09-17T12:08:43;14.20;98.70
13472;DHT22;6808;49.444;11.034;2022-09-17T12:11:12;14.00;99.90
13472;DHT22;6808;49.444;11.034;2022-09-17T12:13:43;13.90;99.90
13472;DHT22;6808;49.444;11.034;2022-09-17T12:16:25;13.90;99.90
13472;DHT22;6808;49.444;11.034;2022-09-17T12:18:56;13.80;99.90
13472;DHT22;6808;49.444;11.034;2022-09-17T12:21:39;13.60;99.90
13472;DHT22;6808;49.444;11.034;2022-09-17T12:24:22;13.40;99.90
13472;DHT22;6808;49.444;11.034;2022-09-17T12:30:09;13.20;99.90
13472;DHT22;6808;49.444;11.034;2022-09-17T13:00:07;13.10;99.90
13472;DHT22;6808;49.444;11.034;2022-09-17T13:05:21;13.30;99.90
13472;DHT22;6808;49.444;11.034;2022-09-17T13:08:40;13.50;99.90
13472;DHT22;6808;49.444;11.034;2022-09-17T13:17:32;13.80;99.90
13472;DHT22;6808;49.444;11.034;2022-09-17T13:20:15;13.70;99.90
13472;DHT22;6808;49.444;11.034;2022-09-17T13:22:46;13.70;99.90
13472;DHT22;6808;49.444;11.034;2022-09-17T13:25:15;13.70;99.90
13472;DHT22;6808;49.444;11.034;2022-09-17T13:27:41;13.60;99.90
13472;DHT22;6808;49.444;11.034;2022-09-17T13:30:10;13.70;99.90
13472;DHT22;6808;49.444;11.034;2022-09-17T13:37:55;13.10;98.80
13472;DHT22;6808;49.444;11.034;2022-09-17T13:40:31;12.60;99.90
13472;DHT22;6808;49.444;11.034;2022-09-17T13:45:31;12.10;99.90
13472;DHT22;6808;49.444;11.034;2022-09-17T13:48:04;11.90;99.90
13472;DHT22;6808;49.444;11.034;2022-09-17T13:50:42;11.80;99.90
13472;DHT22;6808;49.444;11.034;2022-09-17T14:00:55;11.90;99.90
13472;DHT22;6808;49.444;11.034;2022-09-17T14:05:54;12.00;99.90
13472;DHT22;6808;49.444;11.034;2022-09-17T14:08:27;12.10;99.90
13472;DHT22;6808;49.444;11.034;2022-09-17T14:10:55;12.00;99.90
13472;DHT22;6808;49.444;11.034;2022-09-17T14:18:59;12.10;99.90
13472;DHT22;6808;49.444;11.034;2022-09-17T14:21:32;12.20;99.90
13472;DHT22;6808;49.444;11.034;2022-09-17T14:24:19;12.20;99.90
13472;DHT22;6808;49.444;11.034;2022-09-17T14:32:26;12.40;99.90
13472;DHT22;6808;49.444;11.034;2022-09-17T14:35:11;12.40;99.90
13472;DHT22;6808;49.444;11.034;2022-09-17T14:37:39;12.30;99.90
13472;DHT22;6808;49.444;11.034;2022-09-17T14:40:17;12.30;99.90
13472;DHT22;6808;49.444;11.034;2022-09-17T14:42:45;12.20;99.90
13472;DHT22;6808;49.444;11.034;2022-09-17T14:45:19;12.20;99.90
13472;DHT22;6808;49.444;11.034;2022-09-17T14:47:45;12.30;99.90
13472;DHT22;6808;49.444;11.034;2022-09-17T14:50:25;12.30;99.90
13472;DHT22;6808;49.444;11.034;2022-09-17T14:52:52;12.30;99.90
13472;DHT22;6808;49.444;11.034;2022-09-17T14:55:21;12.30;99.90
13472;DHT22;6808;49.444;11.034;2022-09-17T14:57:52;12.40;99.90
13472;DHT22;6808;49.444;11.034;2022-09-17T15:00:20;12.50;99.90
13472;DHT22;6808;49.444;11.034;2022-09-17T15:02:51;12.60;99.90
13472;DHT22;6808;49.444;11.034;2022-09-17T15:05:26;12.60;99.90
13472;DHT22;6808;49.444;11.034;2022-09-17T15:08:17;12.70;99.90
13472;DHT22;6808;49.444;11.034;2022-09-17T15:18:29;12.80;99.90
13472;DHT22;6808;49.444;11.034;2022-09-17T15:20:58;12.70;99.90
13472;DHT22;6808;49.444;11.034;2022-09-17T15:23:26;12.50;99.90
13472;DHT22;6808;49.444;11.034;2022-09-17T15:25:54;12.50;99.90
13472;DHT22;6808;49.444;11.034;2022-09-17T15:28:30;12.40;99.90
13472;DHT22;6808;49.444;11.034;2022-09-17T15:30:58;12.40;99.90
13472;DHT22;6808;49.444;11.034;2022-09-17T15:33:24;12.40;99.90
13472;DHT22;6808;49.444;11.034;2022-09-17T15:36:08;12.40;99.90
13472;DHT22;6808;49.444;11.034;2022-09-17T15:38:36;12.40;99.90
13472;DHT22;6808;49.444;11.034;2022-09-17T15:43:45;12.60;99.90
13472;DHT22;6808;49.444;11.034;2022-09-17T15:46:24;12.70;99.90
13472;DHT22;6808;49.444;11.034;2022-09-17T15:48:52;12.60;99.90
13472;DHT22;6808;49.444;11.034;2022-09-17T15:51:24;12.50;99.90
13472;DHT22;6808;49.444;11.034;2022-09-17T15:53:56;12.50;99.90
13472;DHT22;6808;49.444;11.034;2022-09-17T15:56:28;12.50;99.90
13472;DHT22;6808;49.444;11.034;2022-09-17T15:59:00;12.40;99.90
13472;DHT22;6808;49.444;11.034;2022-09-17T16:04:17;12.30;99.90
13472;DHT22;6808;49.444;11.034;2022-09-17T16:09:48;12.20;99.90
13472;DHT22;6808;49.444;11.034;2022-09-17T16:12:20;12.10;99.90
13472;DHT22;6808;49.444;11.034;2022-09-17T16:14:51;12.10;99.90
13472;DHT22;6808;49.444;11.034;2022-09-17T16:17:27;12.10;99.90
13472;DHT22;6808;49.444;11.034;2022-09-17T16:19:54;12.10;99.90
13472;DHT22;6808;49.444;11.034;2022-09-17T16:22:20;12.10;99.90
13472;DHT22;6808;49.444;11.034;2022-09-17T16:24:46;12.00;99.90
13472;DHT22;6808;49.444;11.034;2022-09-17T16:27:17;12.00;99.90
13472;DHT22;6808;49.444;11.034;2022-09-17T16:29:44;12.10;99.90
13472;DHT22;6808;49.444;11.034;2022-09-17T16:32:10;12.00;99.90
13472;DHT22;6808;49.444;11.034;2022-09-17T16:34:36;12.00;99.90
13472;DHT22;6808;49.444;11.034;2022-09-17T16:37:01;11.90;99.90
13472;DHT22;6808;49.444;11.034;2022-09-17T16:39:27;11.80;99.90
13472;DHT22;6808;49.444;11.034;2022-09-17T16:41:52;11.80;99.90
13472;DHT22;6808;49.444;11.034;2022-09-17T16:44:18;11.70;99.90
13472;DHT22;6808;49.444;11.034;2022-09-17T16:46:44;11.70;99.90
13472;DHT22;6808;49.444;11.034;2022-09-17T16:49:09;11.70;99.90
13472;DHT22;6808;49.444;11.034;2022-09-17T16:51:35;11.70;99.90
13472;DHT22;6808;49.444;11.034;2022-09-17T16:54:00;11.70;99.90
13472;DHT22;6808;49.444;11.034;2022-09-17T16:56:26;11.70;99.90
13472;DHT22;6808;49.444;11.034;2022-09-17T16:58:55;11.60;99.90
13472;DHT22;6808;49.444;11.034;2022-09-17T17:01:21;11.40;99.90
13472;DHT22;6808;49.444;11.034;2022-09-17T17:03:50;11.30;99.90
13472;DHT22;6808;49.444;11.034;2022-09-17T17:06:18;11.20;99.90
13472;DHT22;6808;49.444;11.034;2022-09-17T17:08:44;11.10;99.90
13472;DHT22;6808;49.444;11.034;2022-09-17T17:11:10;11.10;99.90
13472;DHT22;6808;49.444;11.034;2022-09-17T17:13:36;11.10;99.90
13472;DHT22;6808;49.444;11.034;2022-09-17T17:16:06;11.10;99.90
13472;DHT22;6808;49.444;11.034;2022-09-17T17:18:31;11.10;99.90
13472;DHT22;6808;49.444;11.034;2022-09-17T17:21:06;11.00;99.90
13472;DHT22;6808;49.444;11.034;2022-09-17T17:23:33;10.70;99.90
13472;DHT22;6808;49.444;11.034;2022-09-17T17:25:58;10.60;99.90
13472;DHT22;6808;49.444;11.034;2022-09-17T17:28:24;10.50;99.90
13472;DHT22;6808;49.444;11.034;2022-09-17T17:30:50;10.40;99.90
13472;DHT22;6808;49.444;11.034;2022-09-17T17:33:16;10.40;99.90
13472;DHT22;6808;49.444;11.034;2022-09-17T17:35:41;10.40;99.90
13472;DHT22;6808;49.444;11.034;2022-09-17T17:38:07;10.40;99.90
13472;DHT22;6808;49.444;11.034;2022-09-17T17:40:33;10.40;99.90
13472;DHT22;6808;49.444;11.034;2022-09-17T17:42:58;10.40;99.90
13472;DHT22;6808;49.444;11.034;2022-09-17T17:45:24;10.40;99.90
13472;DHT22;6808;49.444;11.034;2022-09-17T17:47:51;10.40;99.90
13472;DHT22;6808;49.444;11.034;2022-09-17T17:50:16;10.30;99.90
13472;DHT22;6808;49.444;11.034;2022-09-17T17:52:42;10.30;99.90
13472;DHT22;6808;49.444;11.034;2022-09-17T17:55:14;10.30;99.90
13472;DHT22;6808;49.444;11.034;2022-09-17T17:57:39;10.20;99.90
13472;DHT22;6808;49.444;11.034;2022-09-17T18:00:06;10.10;99.90
13472;DHT22;6808;49.444;11.034;2022-09-17T18:02:32;10.10;99.90
13472;DHT22;6808;49.444;11.034;2022-09-17T18:04:58;10.00;99.90
13472;DHT22;6808;49.444;11.034;2022-09-17T18:07:23;10.00;99.90
13472;DHT22;6808;49.444;11.034;2022-09-17T18:09:49;10.00;99.90
13472;DHT22;6808;49.444;11.034;2022-09-17T18:12:14;9.90;99.90
13472;DHT22;6808;49.444;11.034;2022-09-17T18:14:40;9.90;99.90
13472;DHT22;6808;49.444;11.034;2022-09-17T18:17:06;9.90;99.90
13472;DHT22;6808;49.444;11.034;2022-09-17T18:19:31;9.80;99.90
13472;DHT22;6808;49.444;11.034;2022-09-17T18:21:57;9.80;99.90
13472;DHT22;6808;49.444;11.034;2022-09-17T18:24:22;9.80;99.90
13472;DHT22;6808;49.444;11.034;2022-09-17T18:26:48;9.70;99.90
13472;DHT22;6808;49.444;11.034;2022-09-17T18:29:13;9.70;99.90
13472;DHT22;6808;49.444;11.034;2022-09-17T18:31:39;9.70;99.90
13472;DHT22;6808;49.444;11.034;2022-09-17T18:34:13;9.70;99.90
13472;DHT22;6808;49.444;11.034;2022-09-17T18:36:41;9.70;99.90
13472;DHT22;6808;49.444;11.034;2022-09-17T18:39:09;9.60;99.90
13472;DHT22;6808;49.444;11.034;2022-09-17T18:41:36;9.60;99.90
13472;DHT22;6808;49.444;11.034;2022-09-17T18:44:08;9.60;99.90
13472;DHT22;6808;49.444;11.034;2022-09-17T18:46:34;9.50;99.90
13472;DHT22;6808;49.444;11.034;2022-09-17T18:49:00;9.50;99.90
13472;DHT22;6808;49.444;11.034;2022-09-17T18:51:26;9.60;99.90
13472;DHT22;6808;49.444;11.034;2022-09-17T18:53:53;9.60;99.90
13472;DHT22;6808;49.444;11.034;2022-09-17T18:56:24;9.60;99.90